createdAt,value
2018-07-10T00:02:43.196Z,18.41
2018-07-10T00:05:43.630Z,18.35
2018-07-10T00:08:23.440Z,18.31
2018-07-10T00:11:06.745Z,18.21
2018-07-10T00:13:35.646Z,18.14
2018-07-10T00:16:04.476Z,18.08
2018-07-10T00:18:33.478Z,18.02
2018-07-10T00:21:02.271Z,17.99
2018-07-10T00:23:30.938Z,17.97
2018-07-10T00:25:59.881Z,17.96
2018-07-10T00:28:28.626Z,17.93
2018-07-10T00:30:57.412Z,17.92
2018-07-10T00:33:26.224Z,17.91
2018-07-10T00:35:55.166Z,17.92
2018-07-10T00:38:34.906Z,17.94
2018-07-10T00:41:05.192Z,17.96
2018-07-10T00:43:34.417Z,17.98
2018-07-10T00:46:03.272Z,18.01
2018-07-10T00:48:32.159Z,18.03
2018-07-10T00:51:01.094Z,18.05
2018-07-10T00:53:30.868Z,18.06
2018-07-10T00:55:59.576Z,18.08
2018-07-10T00:58:28.423Z,18.10
2018-07-10T01:00:57.334Z,18.14
2018-07-10T01:03:26.172Z,18.16
2018-07-10T01:05:55.040Z,18.18
2018-07-10T01:08:24.066Z,18.23
2018-07-10T01:10:59.544Z,18.24
2018-07-10T01:13:28.456Z,18.28
2018-07-10T01:15:57.351Z,18.31
2018-07-10T01:18:28.390Z,18.31
2018-07-10T01:20:57.142Z,18.31
2018-07-10T01:23:27.902Z,18.28
2018-07-10T01:25:56.861Z,18.23
2018-07-10T01:28:26.087Z,18.19
2018-07-10T01:30:54.992Z,18.17
2018-07-10T01:33:24.033Z,18.18
2018-07-10T01:35:52.844Z,18.17
2018-07-10T01:38:22.296Z,18.19
2018-07-10T01:40:52.423Z,18.20
2018-07-10T01:43:21.538Z,18.19
2018-07-10T01:45:54.064Z,18.20
2018-07-10T01:48:22.872Z,18.16
2018-07-10T01:50:51.602Z,18.14
2018-07-10T01:53:20.652Z,18.14
2018-07-10T01:55:50.610Z,18.11
2018-07-10T01:58:19.970Z,18.11
2018-07-10T02:00:48.841Z,18.12
2018-07-10T02:03:17.530Z,18.07
2018-07-10T02:05:46.261Z,18.06
2018-07-10T02:08:15.023Z,18.03
2018-07-10T02:10:44.553Z,17.97
2018-07-10T02:13:13.444Z,17.81
2018-07-10T02:15:42.083Z,17.73
2018-07-10T02:18:12.164Z,17.70
2018-07-10T02:20:50.471Z,17.67
2018-07-10T02:23:19.348Z,17.65
2018-07-10T02:25:48.656Z,17.64
2018-07-10T02:28:17.532Z,17.64
2018-07-10T02:30:46.291Z,17.61
2018-07-10T02:33:15.046Z,17.61
2018-07-10T02:35:44.299Z,17.61
2018-07-10T02:38:13.681Z,17.59
2018-07-10T02:40:45.150Z,17.59
2018-07-10T02:43:15.212Z,17.49
2018-07-10T02:45:44.157Z,17.50
2018-07-10T02:48:13.001Z,17.51
2018-07-10T02:50:43.335Z,17.49
2018-07-10T02:53:12.558Z,17.45
2018-07-10T02:55:43.861Z,17.35
2018-07-10T02:58:13.650Z,17.33
2018-07-10T03:00:42.584Z,17.29
2018-07-10T03:03:15.285Z,17.29
2018-07-10T03:05:43.928Z,17.27
2018-07-10T03:08:12.719Z,17.31
2018-07-10T03:10:42.345Z,17.33
2018-07-10T03:13:11.134Z,17.36
2018-07-10T03:15:40.178Z,17.38
2018-07-10T03:18:09.026Z,17.39
2018-07-10T03:20:38.562Z,17.40
2018-07-10T03:23:07.553Z,17.45
2018-07-10T03:25:36.387Z,17.47
2018-07-10T03:28:05.252Z,17.51
2018-07-10T03:30:34.136Z,17.57
2018-07-10T03:33:03.225Z,17.59
2018-07-10T03:35:32.016Z,17.58
2018-07-10T03:38:01.339Z,17.58
2018-07-10T03:40:31.018Z,17.59
2018-07-10T03:42:59.892Z,17.59
2018-07-10T03:45:28.852Z,17.59
2018-07-10T03:47:59.137Z,17.58
2018-07-10T03:50:28.621Z,17.63
2018-07-10T03:52:57.591Z,17.63
2018-07-10T03:55:26.422Z,17.64
2018-07-10T03:57:56.220Z,17.65
2018-07-10T04:00:25.600Z,17.64
2018-07-10T04:02:54.309Z,17.64
2018-07-10T04:05:24.441Z,17.63
2018-07-10T04:07:57.389Z,17.66
2018-07-10T04:10:36.589Z,17.67
2018-07-10T04:13:14.959Z,17.66
2018-07-10T04:15:45.733Z,17.74
2018-07-10T04:18:16.226Z,17.76
2018-07-10T04:21:26.850Z,17.80
2018-07-10T04:24:16.259Z,17.90
2018-07-10T04:27:25.895Z,17.97
2018-07-10T04:30:06.411Z,18.01
2018-07-10T04:32:37.710Z,18.08
2018-07-10T04:35:07.207Z,18.12
2018-07-10T04:37:36.309Z,18.21
2018-07-10T04:40:05.759Z,18.33
2018-07-10T04:42:38.706Z,18.37
2018-07-10T04:45:10.855Z,18.41
2018-07-10T04:47:55.346Z,18.33
2018-07-10T04:50:34.210Z,18.23
2018-07-10T04:53:15.275Z,18.22
2018-07-10T04:55:44.291Z,18.29
2018-07-10T04:58:19.010Z,18.37
2018-07-10T05:00:50.724Z,13.81
2018-07-10T05:03:20.688Z,18.51
2018-07-10T05:05:49.330Z,18.58
2018-07-10T05:08:20.218Z,18.68
2018-07-10T05:10:50.129Z,18.77
2018-07-10T05:13:18.709Z,18.87
2018-07-10T05:16:05.894Z,19.01
2018-07-10T05:18:35.500Z,19.13
2018-07-10T05:21:09.152Z,19.17
2018-07-10T05:23:37.814Z,19.26
2018-07-10T05:26:06.381Z,19.30
2018-07-10T05:28:34.937Z,19.44
2018-07-10T05:31:04.638Z,19.50
2018-07-10T05:33:34.727Z,19.50
2018-07-10T05:36:04.291Z,19.51
2018-07-10T05:38:39.743Z,19.68
2018-07-10T05:41:09.118Z,19.89
2018-07-10T05:43:46.333Z,19.98
2018-07-10T05:46:15.906Z,20.13
2018-07-10T05:49:02.239Z,20.20
2018-07-10T05:51:46.381Z,20.25
2018-07-10T05:54:15.245Z,20.28
2018-07-10T05:56:44.007Z,20.40
2018-07-10T05:59:12.954Z,20.48
2018-07-10T06:01:42.941Z,20.59
2018-07-10T06:04:14.633Z,20.74
2018-07-10T06:06:43.255Z,20.79
2018-07-10T06:09:12.366Z,20.68
2018-07-10T06:11:40.960Z,20.95
2018-07-10T06:14:09.677Z,21.06
2018-07-10T06:16:39.681Z,21.03
2018-07-10T06:19:08.400Z,21.21
2018-07-10T06:21:39.949Z,21.15
2018-07-10T06:24:15.541Z,21.27
2018-07-10T06:26:44.902Z,21.14
2018-07-10T06:29:18.826Z,21.01
2018-07-10T06:31:51.423Z,21.09
2018-07-10T06:34:25.688Z,21.13
2018-07-10T06:37:03.379Z,21.16
2018-07-10T06:39:32.274Z,22.09
2018-07-10T06:42:04.767Z,21.59
2018-07-10T06:44:36.740Z,21.68
2018-07-10T06:47:20.976Z,21.54
2018-07-10T06:49:50.351Z,21.60
2018-07-10T06:52:21.519Z,21.65
2018-07-10T06:55:05.158Z,21.25
2018-07-10T06:57:34.844Z,21.21
2018-07-10T07:00:07.329Z,21.61
2018-07-10T07:02:37.276Z,22.07
2018-07-10T07:05:06.618Z,22.08
2018-07-10T07:07:36.707Z,22.00
2018-07-10T07:10:08.311Z,22.11
2018-07-10T07:12:37.859Z,22.02
2018-07-10T07:15:09.417Z,22.16
2018-07-10T07:17:41.730Z,22.49
2018-07-10T07:20:10.387Z,22.32
2018-07-10T07:22:39.130Z,22.11
2018-07-10T07:25:08.095Z,21.88
2018-07-10T07:27:36.709Z,21.76
2018-07-10T07:30:05.372Z,21.80
2018-07-10T07:32:34.149Z,21.78
2018-07-10T07:35:03.229Z,21.88
2018-07-10T07:37:34.634Z,21.97
2018-07-10T07:40:03.594Z,22.11
2018-07-10T07:42:32.422Z,21.95
2018-07-10T07:45:01.233Z,21.95
2018-07-10T07:47:30.924Z,22.01
2018-07-10T07:49:59.757Z,21.80
2018-07-10T07:52:30.249Z,21.75
2018-07-10T07:55:00.542Z,21.87
2018-07-10T07:57:29.357Z,22.03
2018-07-10T07:59:58.284Z,22.28
2018-07-10T08:02:26.966Z,22.71
2018-07-10T08:04:55.969Z,22.89
2018-07-10T08:07:25.792Z,23.86
2018-07-10T08:09:55.934Z,24.67
2018-07-10T08:12:26.390Z,24.56
2018-07-10T08:14:55.697Z,24.14
2018-07-10T08:17:25.799Z,24.37
2018-07-10T08:19:56.352Z,24.48
2018-07-10T08:22:26.736Z,25.33
2018-07-10T08:24:55.595Z,26.02
2018-07-10T08:27:25.854Z,26.40
2018-07-10T08:29:56.918Z,26.18
2018-07-10T08:32:27.383Z,26.36
2018-07-10T08:34:56.337Z,26.61
2018-07-10T08:37:25.034Z,26.40
2018-07-10T08:39:53.699Z,26.18
2018-07-10T08:42:22.502Z,26.33
2018-07-10T08:44:51.830Z,26.73
2018-07-10T08:47:20.561Z,26.53
2018-07-10T08:49:49.342Z,27.51
2018-07-10T08:52:19.419Z,28.80
2018-07-10T08:54:48.610Z,31.14
2018-07-10T08:57:17.558Z,31.92
2018-07-10T08:59:46.653Z,30.99
2018-07-10T09:02:15.373Z,30.92
2018-07-10T09:04:44.120Z,30.64
2018-07-10T09:07:13.003Z,29.95
2018-07-10T09:09:41.655Z,30.38
2018-07-10T09:12:10.333Z,30.05
2018-07-10T09:14:39.053Z,29.76
2018-07-10T09:17:07.705Z,30.32
2018-07-10T09:19:36.821Z,30.02
2018-07-10T09:22:08.315Z,29.32
2018-07-10T09:24:54.256Z,29.19
2018-07-10T09:27:24.057Z,29.37
2018-07-10T09:29:53.786Z,30.53
2018-07-10T09:32:28.023Z,30.04
2018-07-10T09:34:58.209Z,29.68
2018-07-10T09:37:33.290Z,29.36
2018-07-10T09:40:07.198Z,29.42
2018-07-10T09:42:38.326Z,30.40
2018-07-10T09:45:08.322Z,31.04
2018-07-10T09:47:36.959Z,30.27
2018-07-10T09:50:05.844Z,30.13
2018-07-10T09:52:34.625Z,32.53
2018-07-10T09:55:03.553Z,34.48
2018-07-10T09:57:33.232Z,35.76
2018-07-10T10:00:02.629Z,35.07
2018-07-10T10:02:31.307Z,35.39
2018-07-10T10:05:03.301Z,36.65
2018-07-10T10:07:32.057Z,35.71
2018-07-10T10:10:01.823Z,33.28
2018-07-10T10:12:30.811Z,31.83
2018-07-10T10:14:59.522Z,32.45
2018-07-10T10:17:29.174Z,33.84
2018-07-10T10:19:59.147Z,32.63
2018-07-10T10:22:29.091Z,32.76
2018-07-10T10:24:58.588Z,33.36
2018-07-10T10:27:29.248Z,33.78
2018-07-10T10:29:58.337Z,34.12
2018-07-10T10:32:27.238Z,33.10
2018-07-10T10:34:56.113Z,33.92
2018-07-10T10:37:24.918Z,33.64
2018-07-10T10:39:55.922Z,33.28
2018-07-10T10:42:25.316Z,31.63
2018-07-10T10:44:55.149Z,29.72
2018-07-10T10:47:24.322Z,29.11
2018-07-10T10:49:53.969Z,28.42
2018-07-10T10:52:22.824Z,27.67
2018-07-10T10:54:51.687Z,26.82
2018-07-10T10:57:20.521Z,25.67
2018-07-10T10:59:51.859Z,25.22
2018-07-10T11:02:22.547Z,24.62
2018-07-10T11:04:53.278Z,24.84
2018-07-10T11:07:24.692Z,25.75
2018-07-10T11:09:53.616Z,29.68
2018-07-10T11:12:22.526Z,30.88
2018-07-10T11:14:51.228Z,31.17
2018-07-10T11:17:28.864Z,30.06
2018-07-10T11:20:23.322Z,29.08
2018-07-10T11:23:01.377Z,27.94
2018-07-10T11:25:34.341Z,27.47
2018-07-10T11:28:04.981Z,27.07
2018-07-10T11:30:35.126Z,27.05
2018-07-10T11:33:05.105Z,26.57
2018-07-10T11:35:34.406Z,26.24
2018-07-10T11:38:06.663Z,26.44
2018-07-10T11:40:36.326Z,26.94
2018-07-10T11:43:08.529Z,28.31
2018-07-10T11:45:38.629Z,28.79
2018-07-10T11:48:08.147Z,28.92
2018-07-10T11:50:37.090Z,28.28
2018-07-10T11:53:05.992Z,28.85
2018-07-10T11:55:37.332Z,27.05
2018-07-10T11:58:08.964Z,26.45
2018-07-10T12:00:38.670Z,26.31
2018-07-10T12:03:07.786Z,26.68
2018-07-10T12:05:38.482Z,26.40
2018-07-10T12:08:07.682Z,26.71
2018-07-10T12:10:37.445Z,26.83
2018-07-10T12:13:06.508Z,26.76
2018-07-10T12:15:35.647Z,26.22
2018-07-10T12:18:06.511Z,26.09
2018-07-10T12:20:39.562Z,26.20
2018-07-10T12:23:09.817Z,25.92
2018-07-10T12:25:43.255Z,26.10
2018-07-10T12:28:14.910Z,26.61
2018-07-10T12:30:43.709Z,26.76
2018-07-10T12:33:12.523Z,26.47
2018-07-10T12:35:41.288Z,26.20
2018-07-10T12:38:10.024Z,25.10
2018-07-10T12:40:38.931Z,24.20
2018-07-10T12:43:07.681Z,23.44
2018-07-10T12:45:36.493Z,22.93
2018-07-10T12:48:05.324Z,22.32
2018-07-10T12:50:34.181Z,21.93
2018-07-10T12:53:03.437Z,21.83
2018-07-10T12:55:34.160Z,21.65
2018-07-10T12:58:04.369Z,21.51
2018-07-10T13:00:34.031Z,21.58
2018-07-10T13:03:02.875Z,21.61
2018-07-10T13:05:38.742Z,21.70
2018-07-10T13:08:07.523Z,21.61
2018-07-10T13:10:36.396Z,21.94
2018-07-10T13:13:05.200Z,22.09
2018-07-10T13:15:36.210Z,22.04
2018-07-10T13:18:05.682Z,22.04
2018-07-10T13:20:34.582Z,22.46
2018-07-10T13:23:03.380Z,22.62
2018-07-10T13:25:32.201Z,23.13
2018-07-10T13:28:01.049Z,23.15
2018-07-10T13:30:33.812Z,23.52
2018-07-10T13:33:02.614Z,23.43
2018-07-10T13:35:31.383Z,23.51
2018-07-10T13:38:01.902Z,23.63
2018-07-10T13:40:30.732Z,23.47
2018-07-10T13:43:00.930Z,23.45
2018-07-10T13:45:31.264Z,23.66
2018-07-10T13:48:00.141Z,23.72
2018-07-10T13:50:33.214Z,23.61
2018-07-10T13:53:02.901Z,23.51
2018-07-10T13:55:32.173Z,23.37
2018-07-10T13:58:12.201Z,23.15
2018-07-10T14:00:46.335Z,22.88
2018-07-10T14:03:15.153Z,22.72
2018-07-10T14:05:43.849Z,22.48
2018-07-10T14:08:12.697Z,22.40
2018-07-10T14:10:41.313Z,22.40
2018-07-10T14:13:09.984Z,22.76
2018-07-10T14:15:38.622Z,22.79
2018-07-10T14:18:07.362Z,22.73
2018-07-10T14:20:55.315Z,22.77
2018-07-10T14:23:24.218Z,22.55
2018-07-10T14:25:53.248Z,22.42
2018-07-10T14:28:22.047Z,22.22
2018-07-10T14:30:50.733Z,22.37
2018-07-10T14:33:20.117Z,22.61
2018-07-10T14:35:48.835Z,22.97
2018-07-10T14:38:21.721Z,22.80
2018-07-10T14:40:51.400Z,22.88
2018-07-10T14:43:25.055Z,22.99
2018-07-10T14:45:54.857Z,22.72
2018-07-10T14:48:25.717Z,22.76
2018-07-10T14:50:55.909Z,22.74
2018-07-10T14:53:24.510Z,22.58
2018-07-10T14:55:53.065Z,22.51
2018-07-10T14:58:21.612Z,22.13
2018-07-10T15:00:50.682Z,21.84
2018-07-10T15:03:19.252Z,21.58
2018-07-10T15:05:47.867Z,21.48
2018-07-10T15:08:16.465Z,21.34
2018-07-10T15:10:44.990Z,21.25
2018-07-10T15:13:13.549Z,21.06
2018-07-10T15:15:42.137Z,20.91
2018-07-10T15:18:15.971Z,20.81
2018-07-10T15:20:44.832Z,20.72
2018-07-10T15:23:14.120Z,20.56
2018-07-10T15:25:42.784Z,20.42
2018-07-10T15:28:11.464Z,20.38
2018-07-10T15:30:40.185Z,20.39
2018-07-10T15:33:08.932Z,20.50
2018-07-10T15:35:37.748Z,20.46
2018-07-10T15:38:06.452Z,20.46
2018-07-10T15:40:35.223Z,20.43
2018-07-10T15:43:03.902Z,20.58
2018-07-10T15:45:32.455Z,20.91
2018-07-10T15:48:00.997Z,21.31
2018-07-10T15:50:29.560Z,21.52
2018-07-10T15:52:58.156Z,21.82
2018-07-10T15:55:26.721Z,21.93
2018-07-10T15:57:55.270Z,21.99
2018-07-10T16:00:23.794Z,22.01
2018-07-10T16:02:52.862Z,22.09
2018-07-10T16:05:21.406Z,22.30
2018-07-10T16:07:50.024Z,22.51
2018-07-10T16:10:18.803Z,22.36
2018-07-10T16:12:47.415Z,22.50
2018-07-10T16:15:15.966Z,22.57
2018-07-10T16:17:44.543Z,22.55
2018-07-10T16:20:13.157Z,22.30
2018-07-10T16:22:43.054Z,22.13
2018-07-10T16:25:22.218Z,22.02
2018-07-10T16:27:50.765Z,22.20
2018-07-10T16:30:22.446Z,22.31
2018-07-10T16:32:51.288Z,22.18
2018-07-10T16:35:22.172Z,21.78
2018-07-10T16:37:51.342Z,21.62
2018-07-10T16:40:19.855Z,21.77
2018-07-10T16:42:51.853Z,21.71
2018-07-10T16:45:23.477Z,21.88
2018-07-10T16:49:01.278Z,21.78
2018-07-10T16:51:32.949Z,22.08
2018-07-10T16:54:02.295Z,22.06
2018-07-10T16:56:30.843Z,22.14
2018-07-10T16:58:59.770Z,22.12
2018-07-10T17:01:29.066Z,22.11
2018-07-10T17:03:59.068Z,22.01
2018-07-10T17:06:27.696Z,21.86
2018-07-10T17:08:56.365Z,21.64
2018-07-10T17:11:24.908Z,21.61
2018-07-10T17:13:53.537Z,21.34
2018-07-10T17:16:29.516Z,21.25
2018-07-10T17:18:58.213Z,21.21
2018-07-10T17:21:27.966Z,21.26
2018-07-10T17:24:00.122Z,21.29
2018-07-10T17:26:28.879Z,21.41
2018-07-10T17:28:57.536Z,21.36
2018-07-10T17:31:26.074Z,21.26
2018-07-10T17:33:54.604Z,21.13
2018-07-10T17:36:23.172Z,21.05
2018-07-10T17:38:51.753Z,20.99
2018-07-10T17:41:21.054Z,20.96
2018-07-10T17:43:49.661Z,20.94
2018-07-10T17:46:18.588Z,20.83
2018-07-10T17:48:47.421Z,20.78
2018-07-10T17:51:16.262Z,20.78
2018-07-10T17:53:44.779Z,20.77
2018-07-10T17:56:13.397Z,20.63
2018-07-10T17:58:42.018Z,20.47
2018-07-10T18:01:11.104Z,20.40
2018-07-10T18:03:39.773Z,20.37
2018-07-10T18:06:08.299Z,20.49
2018-07-10T18:08:36.845Z,20.41
2018-07-10T18:11:05.436Z,20.34
2018-07-10T18:13:34.084Z,20.25
2018-07-10T18:16:02.601Z,20.10
2018-07-10T18:18:31.173Z,19.93
2018-07-10T18:21:00.225Z,19.83
2018-07-10T18:23:29.010Z,19.63
2018-07-10T18:25:57.582Z,19.30
2018-07-10T18:28:26.168Z,19.15
2018-07-10T18:30:54.693Z,19.05
2018-07-10T18:33:23.273Z,18.77
2018-07-10T18:35:51.869Z,18.68
2018-07-10T18:38:20.764Z,18.64
2018-07-10T18:40:49.350Z,18.60
2018-07-10T18:43:17.994Z,18.48
2018-07-10T18:45:46.676Z,18.35
2018-07-10T18:48:16.595Z,18.31
2018-07-10T18:50:45.149Z,18.25
2018-07-10T18:53:13.703Z,18.22
2018-07-10T18:55:42.229Z,18.16
2018-07-10T18:58:17.162Z,18.10
2018-07-10T19:03:07.185Z,18.04
2018-07-10T19:05:41.900Z,17.76
2018-07-10T19:08:10.601Z,17.75
2018-07-10T19:10:39.662Z,17.72
2018-07-10T19:13:08.544Z,17.66
2018-07-10T19:15:37.229Z,17.61
2018-07-10T19:18:06.222Z,17.57
2018-07-10T19:20:35.026Z,17.51
2018-07-10T19:23:09.403Z,17.45
2018-07-10T19:25:38.161Z,17.40
2018-07-10T19:28:06.955Z,17.36
2018-07-10T19:30:43.543Z,17.31
2018-07-10T19:33:12.268Z,17.20
2018-07-10T19:35:41.046Z,17.10
2018-07-10T19:38:09.649Z,17.00
2018-07-10T19:40:38.209Z,16.92
2018-07-10T19:43:06.832Z,16.86
2018-07-10T19:45:35.385Z,16.82
2018-07-10T19:48:03.939Z,16.77
2018-07-10T19:50:40.334Z,16.72
2018-07-10T19:53:08.945Z,16.67
2018-07-10T19:55:41.349Z,16.68
2018-07-10T19:58:20.850Z,16.68
2018-07-10T20:00:54.353Z,16.72
2018-07-10T20:03:36.053Z,16.73
2018-07-10T20:06:10.937Z,16.81
2018-07-10T20:08:45.418Z,16.87
2018-07-10T20:11:14.873Z,16.88
2018-07-10T20:13:46.700Z,16.90
2018-07-10T20:16:23.250Z,16.91
2018-07-10T20:21:09.253Z,16.89
2018-07-10T20:24:15.442Z,16.88
2018-07-10T20:26:57.360Z,16.85
2018-07-10T20:29:51.196Z,16.81
2018-07-10T20:32:24.919Z,16.74
2018-07-10T20:35:00.490Z,16.68
2018-07-10T20:37:30.750Z,16.61
2018-07-10T20:39:59.594Z,16.54
2018-07-10T20:42:42.302Z,16.57
2018-07-10T20:45:10.897Z,16.61
2018-07-10T20:47:50.717Z,16.63
2018-07-10T20:51:00.378Z,16.60
2018-07-10T20:54:37.813Z,16.54
2018-07-10T20:57:15.601Z,16.43
2018-07-10T20:59:46.011Z,16.37
2018-07-10T21:02:29.162Z,16.32
2018-07-10T21:05:10.572Z,16.25
2018-07-10T21:07:53.519Z,16.17
2018-07-10T21:10:44.672Z,16.13
2018-07-10T21:13:50.711Z,16.10
2018-07-10T21:17:01.491Z,16.07
2018-07-10T21:19:44.028Z,16.04
2018-07-10T21:22:53.192Z,15.99
2018-07-10T21:25:26.580Z,15.89
2018-07-10T21:28:07.884Z,15.80
2018-07-10T21:30:45.299Z,15.74
2018-07-10T21:33:20.463Z,15.70
2018-07-10T21:35:57.065Z,15.63
2018-07-10T21:40:59.707Z,15.50
2018-07-10T21:43:36.892Z,15.34
2018-07-10T21:46:18.360Z,15.22
2018-07-10T21:48:58.220Z,15.13
2018-07-10T21:51:26.986Z,15.01
2018-07-10T21:53:55.709Z,14.99
2018-07-10T21:56:24.556Z,14.97
2018-07-10T21:58:53.217Z,15.03
2018-07-10T22:01:43.622Z,15.05
2018-07-10T22:04:15.098Z,15.04
2018-07-10T22:06:44.197Z,14.97
2018-07-10T22:09:12.869Z,14.83
2018-07-10T22:11:41.925Z,14.73
2018-07-10T22:14:12.073Z,14.63
2018-07-10T22:16:41.520Z,14.62
2018-07-10T22:19:11.436Z,14.55
2018-07-10T22:21:40.936Z,14.53
2018-07-10T22:24:09.844Z,14.45
2018-07-10T22:26:39.179Z,14.35
2018-07-10T22:29:07.980Z,14.29
2018-07-10T22:31:41.940Z,14.25
2018-07-10T22:34:10.628Z,14.20
2018-07-10T22:36:39.346Z,14.12
2018-07-10T22:39:08.093Z,14.09
2018-07-10T22:41:39.088Z,14.00
2018-07-10T22:44:08.012Z,13.94
2018-07-10T22:46:38.744Z,13.88
2018-07-10T22:49:09.811Z,13.87
2018-07-10T22:51:39.088Z,13.81
2018-07-10T22:54:07.842Z,13.74
2018-07-10T22:56:37.431Z,13.70
2018-07-10T22:59:06.099Z,13.63
2018-07-10T23:01:36.776Z,13.60
2018-07-10T23:04:05.889Z,13.56
2018-07-10T23:06:36.576Z,13.53
2018-07-10T23:09:05.629Z,13.47
2018-07-10T23:11:34.937Z,13.47
2018-07-10T23:14:03.711Z,13.48
2018-07-10T23:16:37.445Z,13.47
2018-07-10T23:19:06.773Z,13.44
2018-07-10T23:21:37.254Z,13.37
2018-07-10T23:24:06.223Z,13.33
2018-07-10T23:26:35.490Z,13.30
2018-07-10T23:29:05.008Z,13.35
2018-07-10T23:31:34.301Z,13.36
2018-07-10T23:34:10.423Z,13.33
2018-07-10T23:36:39.602Z,13.24
2018-07-10T23:39:09.891Z,13.14
2018-07-10T23:41:51.825Z,13.03
2018-07-10T23:44:22.193Z,12.97
2018-07-10T23:46:55.418Z,12.90
2018-07-10T23:49:24.119Z,12.87
2018-07-10T23:52:04.072Z,12.83
2018-07-10T23:54:32.714Z,12.78
2018-07-10T23:57:01.517Z,12.72
2018-07-10T23:59:30.325Z,12.68
